Aviation Digital Data Service (ADDS)

Output produced by METARs form (0503 UTC 21 September 2017)
found at http://www.aviationweather.gov/adds/metars/
 
DRRN 210400Z 28004KT 9999 FEW020CB 24/24 Q1012 NOSIG
TAF DRRN 202300Z 2100/2206 10025G40KT 1000 BLDU TSRA BKN016 SCT020CB 
     BECMG 2106/2108 20010KT 9999 FEW020 
     PROB40 
     TEMPO 2114/2120 4000 TS SHRA BKN016 FEW020CB
       
TAF DRZA 202300Z 2100/2124 30010KT CAVOK 
     PROB40 
     TEMPO 2114/2118 TS FEW040CB
       
TAF DRZR 202300Z 2100/2124 28010KT 9999 FEW030 
     PROB30 
     TEMPO 2102/2108 10025G35KT 3000 BLDU TSRA SCT020 FEW030CB